sensor_id;sensor_type;location;lat;lon;timestamp;pressure;altitude;pressure_sealevel;temperature;humidity
21588;BME280;10956;48.878;13.316;2023-10-13T00:01:56;94390.19;;;14.28;100.00
21588;BME280;10956;48.878;13.316;2023-10-13T00:04:24;94378.63;;;14.19;100.00
21588;BME280;10956;48.878;13.316;2023-10-13T00:06:59;94378.63;;;14.19;100.00
21588;BME280;10956;48.878;13.316;2023-10-13T00:09:27;94383.47;;;14.12;100.00
21588;BME280;10956;48.878;13.316;2023-10-13T00:11:59;94380.38;;;14.05;100.00
21588;BME280;10956;48.878;13.316;2023-10-13T00:14:25;94397.41;;;13.99;100.00
21588;BME280;10956;48.878;13.316;2023-10-13T00:17:02;94397.41;;;13.99;100.00
21588;BME280;10956;48.878;13.316;2023-10-13T00:19:41;94398.97;;;14.00;100.00
21588;BME280;10956;48.878;13.316;2023-10-13T00:22:11;94400.00;;;14.04;100.00
21588;BME280;10956;48.878;13.316;2023-10-13T00:24:41;94398.97;;;14.00;100.00
21588;BME280;10956;48.878;13.316;2023-10-13T00:27:14;94396.44;;;14.13;100.00
21588;BME280;10956;48.878;13.316;2023-10-13T00:30:00;94395.22;;;14.06;100.00
21588;BME280;10956;48.878;13.316;2023-10-13T00:32:46;94397.41;;;13.99;100.00
21588;BME280;10956;48.878;13.316;2023-10-13T00:35:21;94401.34;;;14.01;100.00
21588;BME280;10956;48.878;13.316;2023-10-13T00:37:53;94398.13;;;14.04;100.00
21588;BME280;10956;48.878;13.316;2023-10-13T00:40:20;94401.13;;;13.98;100.00
21588;BME280;10956;48.878;13.316;2023-10-13T00:43:12;94396.91;;;13.97;100.00
21588;BME280;10956;48.878;13.316;2023-10-13T00:45:54;94404.22;;;14.05;100.00
21588;BME280;10956;48.878;13.316;2023-10-13T00:48:24;94407.91;;;14.09;100.00
21588;BME280;10956;48.878;13.316;2023-10-13T00:50:57;94406.19;;;14.18;100.00
21588;BME280;10956;48.878;13.316;2023-10-13T00:53:28;94396.72;;;14.12;100.00
21588;BME280;10956;48.878;13.316;2023-10-13T00:55:54;94398.09;;;14.09;100.00
21588;BME280;10956;48.878;13.316;2023-10-13T00:58:21;94392.00;;;14.09;100.00
21588;BME280;10956;48.878;13.316;2023-10-13T01:00:50;94396.22;;;14.10;100.00
21588;BME280;10956;48.878;13.316;2023-10-13T01:03:24;94396.56;;;14.27;100.00
21588;BME280;10956;48.878;13.316;2023-10-13T01:05:54;94396.63;;;14.22;100.00
21588;BME280;10956;48.878;13.316;2023-10-13T01:08:31;94395.59;;;14.18;100.00
21588;BME280;10956;48.878;13.316;2023-10-13T01:10:59;94395.31;;;14.19;100.00
21588;BME280;10956;48.878;13.316;2023-10-13T01:13:25;94405.69;;;14.16;100.00
21588;BME280;10956;48.878;13.316;2023-10-13T01:15:52;94401.47;;;14.15;100.00
21588;BME280;10956;48.878;13.316;2023-10-13T01:18:18;94392.94;;;14.18;100.00
21588;BME280;10956;48.878;13.316;2023-10-13T01:20:43;94391.75;;;14.29;100.00
21588;BME280;10956;48.878;13.316;2023-10-13T01:23:12;94397.72;;;14.40;100.00
21588;BME280;10956;48.878;13.316;2023-10-13T01:25:54;94392.19;;;14.36;100.00
21588;BME280;10956;48.878;13.316;2023-10-13T01:28:19;94391.41;;;14.36;100.00
21588;BME280;10956;48.878;13.316;2023-10-13T01:30:53;94391.75;;;14.29;100.00
21588;BME280;10956;48.878;13.316;2023-10-13T01:33:19;94392.38;;;14.21;100.00
21588;BME280;10956;48.878;13.316;2023-10-13T01:35:52;94388.44;;;14.18;100.00
21588;BME280;10956;48.878;13.316;2023-10-13T01:38:18;94390.31;;;14.18;100.00
21588;BME280;10956;48.878;13.316;2023-10-13T01:40:43;94393.97;;;14.22;100.00
21588;BME280;10956;48.878;13.316;2023-10-13T01:43:09;94386.53;;;14.24;100.00
21588;BME280;10956;48.878;13.316;2023-10-13T01:45:39;94388.38;;;14.23;100.00
21588;BME280;10956;48.878;13.316;2023-10-13T01:48:17;94388.16;;;14.20;100.00
21588;BME280;10956;48.878;13.316;2023-10-13T01:50:46;94389.22;;;14.19;100.00
21588;BME280;10956;48.878;13.316;2023-10-13T01:53:13;94393.47;;;14.20;100.00
21588;BME280;10956;48.878;13.316;2023-10-13T01:55:42;94392.44;;;14.16;100.00
21588;BME280;10956;48.878;13.316;2023-10-13T01:58:12;94393.00;;;14.13;100.00
21588;BME280;10956;48.878;13.316;2023-10-13T02:00:44;94394.13;;;14.07;100.00
21588;BME280;10956;48.878;13.316;2023-10-13T02:03:11;94391.50;;;14.07;100.00
21588;BME280;10956;48.878;13.316;2023-10-13T02:05:44;94387.25;;;14.06;100.00
21588;BME280;10956;48.878;13.316;2023-10-13T02:08:20;94388.00;;;14.11;100.00
21588;BME280;10956;48.878;13.316;2023-10-13T02:10:50;94387.72;;;14.13;100.00
21588;BME280;10956;48.878;13.316;2023-10-13T02:13:16;94385.75;;;14.00;100.00
21588;BME280;10956;48.878;13.316;2023-10-13T02:15:46;94388.50;;;13.89;100.00
21588;BME280;10956;48.878;13.316;2023-10-13T02:18:14;94388.50;;;13.89;100.00
21588;BME280;10956;48.878;13.316;2023-10-13T02:20:51;94388.94;;;13.97;100.00
21588;BME280;10956;48.878;13.316;2023-10-13T02:23:21;94394.03;;;13.93;100.00
21588;BME280;10956;48.878;13.316;2023-10-13T02:25:47;94398.88;;;13.86;100.00
21588;BME280;10956;48.878;13.316;2023-10-13T02:28:12;94393.34;;;13.82;100.00
21588;BME280;10956;48.878;13.316;2023-10-13T02:30:47;94382.78;;;13.77;100.00
21588;BME280;10956;48.878;13.316;2023-10-13T02:33:16;94388.38;;;13.76;100.00
21588;BME280;10956;48.878;13.316;2023-10-13T02:35:56;94384.44;;;13.73;100.00
21588;BME280;10956;48.878;13.316;2023-10-13T02:38:22;94388.16;;;13.72;100.00
21588;BME280;10956;48.878;13.316;2023-10-13T02:41:16;94386.69;;;13.85;100.00
21588;BME280;10956;48.878;13.316;2023-10-13T02:43:52;94382.28;;;13.99;100.00
21588;BME280;10956;48.878;13.316;2023-10-13T02:46:21;94383.88;;;13.76;100.00
21588;BME280;10956;48.878;13.316;2023-10-13T02:48:53;94388.59;;;13.79;100.00
21588;BME280;10956;48.878;13.316;2023-10-13T02:51:20;94378.00;;;13.79;100.00
21588;BME280;10956;48.878;13.316;2023-10-13T02:53:50;94385.59;;;13.62;100.00
21588;BME280;10956;48.878;13.316;2023-10-13T02:56:18;94378.75;;;13.56;100.00
21588;BME280;10956;48.878;13.316;2023-10-13T02:58:52;94375.59;;;13.54;100.00
21588;BME280;10956;48.878;13.316;2023-10-13T03:01:37;94383.28;;;13.55;100.00
21588;BME280;10956;48.878;13.316;2023-10-13T03:04:03;94383.50;;;13.59;100.00
21588;BME280;10956;48.878;13.316;2023-10-13T03:06:34;94379.78;;;13.60;100.00
21588;BME280;10956;48.878;13.316;2023-10-13T03:09:07;94384.75;;;13.67;100.00
21588;BME280;10956;48.878;13.316;2023-10-13T03:11:48;94375.50;;;13.64;100.00
21588;BME280;10956;48.878;13.316;2023-10-13T03:14:21;94369.44;;;13.64;100.00
21588;BME280;10956;48.878;13.316;2023-10-13T03:16:55;94369.16;;;13.65;100.00
21588;BME280;10956;48.878;13.316;2023-10-13T03:19:22;94375.50;;;13.64;100.00
21588;BME280;10956;48.878;13.316;2023-10-13T03:21:55;94379.69;;;13.70;100.00
21588;BME280;10956;48.878;13.316;2023-10-13T03:24:22;94379.63;;;13.75;100.00
21588;BME280;10956;48.878;13.316;2023-10-13T03:27:01;94375.41;;;13.74;100.00
21588;BME280;10956;48.878;13.316;2023-10-13T03:29:38;94379.28;;;13.58;100.00
21588;BME280;10956;48.878;13.316;2023-10-13T03:32:13;94371.34;;;13.58;100.00
21588;BME280;10956;48.878;13.316;2023-10-13T03:34:42;94370.13;;;13.45;100.00
21588;BME280;10956;48.878;13.316;2023-10-13T03:37:18;94373.34;;;13.42;100.00
21588;BME280;10956;48.878;13.316;2023-10-13T03:40:09;94366.31;;;13.56;100.00
21588;BME280;10956;48.878;13.316;2023-10-13T03:42:51;94375.69;;;13.44;100.00
21588;BME280;10956;48.878;13.316;2023-10-13T03:45:40;94371.19;;;13.44;100.00
21588;BME280;10956;48.878;13.316;2023-10-13T03:48:16;94374.13;;;13.43;100.00
21588;BME280;10956;48.878;13.316;2023-10-13T03:50:53;94378.16;;;13.35;100.00
21588;BME280;10956;48.878;13.316;2023-10-13T03:53:31;94378.94;;;13.36;100.00
21588;BME280;10956;48.878;13.316;2023-10-13T03:56:03;94382.00;;;13.48;100.00
21588;BME280;10956;48.878;13.316;2023-10-13T03:58:41;94379.88;;;13.50;100.00
21588;BME280;10956;48.878;13.316;2023-10-13T04:01:19;94388.34;;;13.52;100.00
21588;BME280;10956;48.878;13.316;2023-10-13T04:03:51;94381.13;;;13.57;100.00
21588;BME280;10956;48.878;13.316;2023-10-13T04:06:25;94384.91;;;13.51;100.00
21588;BME280;10956;48.878;13.316;2023-10-13T04:09:12;94382.53;;;13.50;100.00
21588;BME280;10956;48.878;13.316;2023-10-13T04:12:03;94379.97;;;13.40;100.00
21588;BME280;10956;48.878;13.316;2023-10-13T04:14:29;94379.97;;;13.40;100.00
21588;BME280;10956;48.878;13.316;2023-10-13T04:17:10;94376.59;;;13.34;100.00
21588;BME280;10956;48.878;13.316;2023-10-13T04:19:48;94380.53;;;13.37;100.00
21588;BME280;10956;48.878;13.316;2023-10-13T04:22:38;94370.41;;;13.44;100.00
21588;BME280;10956;48.878;13.316;2023-10-13T04:28:00;94381.13;;;13.57;100.00
21588;BME280;10956;48.878;13.316;2023-10-13T04:30:48;94384.56;;;13.58;100.00
21588;BME280;10956;48.878;13.316;2023-10-13T04:36:20;94375.56;;;13.59;100.00
21588;BME280;10956;48.878;13.316;2023-10-13T04:39:08;94369.72;;;13.62;100.00
21588;BME280;10956;48.878;13.316;2023-10-13T04:41:35;94364.91;;;13.64;100.00
21588;BME280;10956;48.878;13.316;2023-10-13T04:44:12;94368.63;;;13.63;100.00
21588;BME280;10956;48.878;13.316;2023-10-13T04:46:54;94363.91;;;13.60;100.00
21588;BME280;10956;48.878;13.316;2023-10-13T04:49:42;94363.66;;;13.56;100.00
21588;BME280;10956;48.878;13.316;2023-10-13T04:52:07;94365.03;;;13.54;100.00
21588;BME280;10956;48.878;13.316;2023-10-13T04:54:37;94364.56;;;13.47;100.00
21588;BME280;10956;48.878;13.316;2023-10-13T04:57:35;94362.75;;;13.42;100.00
21588;BME280;10956;48.878;13.316;2023-10-13T05:00:13;94359.31;;;13.42;100.00
21588;BME280;10956;48.878;13.316;2023-10-13T05:02:46;94356.34;;;13.48;100.00
21588;BME280;10956;48.878;13.316;2023-10-13T05:05:22;94357.59;;;13.56;100.00
21588;BME280;10956;48.878;13.316;2023-10-13T05:07:51;94363.06;;;13.36;100.00
21588;BME280;10956;48.878;13.316;2023-10-13T05:10:36;94363.22;;;13.15;100.00
21588;BME280;10956;48.878;13.316;2023-10-13T05:13:20;94371.69;;;13.12;100.00
21588;BME280;10956;48.878;13.316;2023-10-13T05:16:04;94381.41;;;13.27;100.00
21588;BME280;10956;48.878;13.316;2023-10-13T05:18:48;94366.34;;;13.22;100.00
21588;BME280;10956;48.878;13.316;2023-10-13T05:21:32;94370.06;;;13.21;100.00
21588;BME280;10956;48.878;13.316;2023-10-13T05:24:16;94367.44;;;13.21;100.00
21588;BME280;10956;48.878;13.316;2023-10-13T05:27:00;94363.16;;;13.25;100.00
21588;BME280;10956;48.878;13.316;2023-10-13T05:29:45;94358.84;;;13.35;100.00
21588;BME280;10956;48.878;13.316;2023-10-13T05:32:30;94360.94;;;13.38;100.00
21588;BME280;10956;48.878;13.316;2023-10-13T05:35:15;94358.28;;;13.38;100.00
21588;BME280;10956;48.878;13.316;2023-10-13T05:37:59;94355.16;;;13.31;100.00
21588;BME280;10956;48.878;13.316;2023-10-13T05:40:57;94361.03;;;13.28;100.00
21588;BME280;10956;48.878;13.316;2023-10-13T05:43:42;94361.03;;;13.28;100.00
21588;BME280;10956;48.878;13.316;2023-10-13T05:46:26;94353.59;;;13.30;100.00
21588;BME280;10956;48.878;13.316;2023-10-13T05:48:52;94365.66;;;13.41;100.00
21588;BME280;10956;48.878;13.316;2023-10-13T05:51:26;94364.00;;;13.50;100.00
21588;BME280;10956;48.878;13.316;2023-10-13T05:54:01;94368.41;;;13.60;100.00
21588;BME280;10956;48.878;13.316;2023-10-13T05:56:41;94373.28;;;13.76;100.00
21588;BME280;10956;48.878;13.316;2023-10-13T05:59:26;94377.44;;;13.82;100.00
21588;BME280;10956;48.878;13.316;2023-10-13T06:02:10;94384.53;;;13.87;100.00
21588;BME280;10956;48.878;13.316;2023-10-13T06:04:56;94390.13;;;13.85;100.00
21588;BME280;10956;48.878;13.316;2023-10-13T06:07:40;94384.94;;;13.99;100.00
21588;BME280;10956;48.878;13.316;2023-10-13T06:10:24;94389.50;;;13.94;100.00
21588;BME280;10956;48.878;13.316;2023-10-13T06:13:07;94391.03;;;14.00;100.00
21588;BME280;10956;48.878;13.316;2023-10-13T06:15:51;94388.94;;;13.97;100.00
21588;BME280;10956;48.878;13.316;2023-10-13T06:18:35;94390.75;;;14.01;100.00
21588;BME280;10956;48.878;13.316;2023-10-13T06:21:20;94390.94;;;14.10;100.00
21588;BME280;10956;48.878;13.316;2023-10-13T06:24:04;94386.00;;;14.22;100.00
21588;BME280;10956;48.878;13.316;2023-10-13T06:26:48;94398.75;;;14.44;100.00
21588;BME280;10956;48.878;13.316;2023-10-13T06:29:37;94400.88;;;14.66;100.00
21588;BME280;10956;48.878;13.316;2023-10-13T06:32:02;94399.81;;;14.67;100.00
21588;BME280;10956;48.878;13.316;2023-10-13T06:34:36;94402.38;;;14.72;100.00
21588;BME280;10956;48.878;13.316;2023-10-13T06:37:14;94408.19;;;14.74;100.00
21588;BME280;10956;48.878;13.316;2023-10-13T06:39:53;94404.53;;;14.70;100.00
21588;BME280;10956;48.878;13.316;2023-10-13T06:42:25;94417.72;;;14.56;100.00
21588;BME280;10956;48.878;13.316;2023-10-13T06:44:57;94409.13;;;14.40;100.00
21588;BME280;10956;48.878;13.316;2023-10-13T06:47:25;94413.41;;;14.36;100.00
21588;BME280;10956;48.878;13.316;2023-10-13T06:49:53;94411.84;;;14.35;100.00
21588;BME280;10956;48.878;13.316;2023-10-13T06:52:22;94417.13;;;14.35;100.00
21588;BME280;10956;48.878;13.316;2023-10-13T06:54:53;94419.50;;;14.37;100.00
21588;BME280;10956;48.878;13.316;2023-10-13T06:57:19;94421.31;;;14.41;100.00
21588;BME280;10956;48.878;13.316;2023-10-13T06:59:48;94417.03;;;14.45;100.00
21588;BME280;10956;48.878;13.316;2023-10-13T07:02:13;94423.34;;;14.49;100.00
21588;BME280;10956;48.878;13.316;2023-10-13T07:04:48;94420.44;;;14.70;100.00
21588;BME280;10956;48.878;13.316;2023-10-13T07:07:13;94423.19;;;14.83;100.00
21588;BME280;10956;48.878;13.316;2023-10-13T07:09:41;94427.13;;;14.86;100.00
21588;BME280;10956;48.878;13.316;2023-10-13T07:12:14;94422.25;;;14.93;100.00
21588;BME280;10956;48.878;13.316;2023-10-13T07:14:52;94427.00;;;14.96;100.00
21588;BME280;10956;48.878;13.316;2023-10-13T07:17:19;94427.72;;;15.02;100.00
21588;BME280;10956;48.878;13.316;2023-10-13T07:19:52;94425.69;;;15.12;100.00
21588;BME280;10956;48.878;13.316;2023-10-13T07:22:39;94435.38;;;15.22;100.00
21588;BME280;10956;48.878;13.316;2023-10-13T07:25:05;94438.00;;;15.41;100.00
21588;BME280;10956;48.878;13.316;2023-10-13T07:27:32;94434.63;;;15.54;100.00
21588;BME280;10956;48.878;13.316;2023-10-13T07:30:00;94438.13;;;15.68;100.00
21588;BME280;10956;48.878;13.316;2023-10-13T07:32:38;94442.69;;;15.81;100.00
21588;BME280;10956;48.878;13.316;2023-10-13T07:35:11;94446.66;;;15.98;100.00
21588;BME280;10956;48.878;13.316;2023-10-13T07:37:36;94442.53;;;16.05;100.00
21588;BME280;10956;48.878;13.316;2023-10-13T07:40:04;94445.59;;;16.26;100.00
21588;BME280;10956;48.878;13.316;2023-10-13T07:42:48;94438.44;;;16.40;100.00
21588;BME280;10956;48.878;13.316;2023-10-13T07:45:14;94442.56;;;16.46;100.00
21588;BME280;10956;48.878;13.316;2023-10-13T07:47:43;94435.66;;;16.59;100.00
21588;BME280;10956;48.878;13.316;2023-10-13T07:50:08;94435.47;;;16.83;100.00
21588;BME280;10956;48.878;13.316;2023-10-13T07:52:34;94435.28;;;16.79;100.00
21588;BME280;10956;48.878;13.316;2023-10-13T07:55:06;94431.53;;;16.67;100.00
21588;BME280;10956;48.878;13.316;2023-10-13T07:57:39;94435.06;;;16.48;100.00
21588;BME280;10956;48.878;13.316;2023-10-13T08:00:21;94434.88;;;16.31;100.00
21588;BME280;10956;48.878;13.316;2023-10-13T08:03:14;94428.75;;;16.17;100.00
21588;BME280;10956;48.878;13.316;2023-10-13T08:05:40;94431.53;;;16.12;100.00
21588;BME280;10956;48.878;13.316;2023-10-13T08:08:26;94435.84;;;16.08;100.00
21588;BME280;10956;48.878;13.316;2023-10-13T08:11:00;94442.75;;;16.09;100.00
21588;BME280;10956;48.878;13.316;2023-10-13T08:13:37;94431.13;;;16.05;100.00
21588;BME280;10956;48.878;13.316;2023-10-13T08:16:03;94433.19;;;16.08;100.00
21588;BME280;10956;48.878;13.316;2023-10-13T08:18:34;94430.44;;;16.13;100.00
21588;BME280;10956;48.878;13.316;2023-10-13T08:21:02;94436.03;;;16.11;100.00
21588;BME280;10956;48.878;13.316;2023-10-13T08:23:41;94435.25;;;16.11;100.00
21588;BME280;10956;48.878;13.316;2023-10-13T08:26:22;94436.34;;;16.10;100.00
21588;BME280;10956;48.878;13.316;2023-10-13T08:28:58;94426.28;;;16.07;100.00
21588;BME280;10956;48.878;13.316;2023-10-13T08:31:48;94426.19;;;16.12;100.00
21588;BME280;10956;48.878;13.316;2023-10-13T08:34:32;94430.34;;;16.18;100.00
21588;BME280;10956;48.878;13.316;2023-10-13T08:37:18;94428.19;;;16.20;100.00
21588;BME280;10956;48.878;13.316;2023-10-13T08:39:53;94431.53;;;16.26;100.00
21588;BME280;10956;48.878;13.316;2023-10-13T08:42:33;94435.38;;;16.33;100.00
21588;BME280;10956;48.878;13.316;2023-10-13T08:45:12;94435.38;;;16.33;100.00
21588;BME280;10956;48.878;13.316;2023-10-13T08:47:59;94440.59;;;16.38;100.00
21588;BME280;10956;48.878;13.316;2023-10-13T08:53:28;94438.44;;;16.40;100.00
21588;BME280;10956;48.878;13.316;2023-10-13T08:56:07;94444.72;;;16.44;100.00
21588;BME280;10956;48.878;13.316;2023-10-13T08:58:49;94443.06;;;16.48;100.00
21588;BME280;10956;48.878;13.316;2023-10-13T09:04:18;94430.34;;;16.45;100.00
21588;BME280;10956;48.878;13.316;2023-10-13T09:06:45;94442.34;;;16.57;100.00
21588;BME280;10956;48.878;13.316;2023-10-13T09:09:50;94437.25;;;16.60;100.00
21588;BME280;10956;48.878;13.316;2023-10-13T09:12:26;94443.84;;;16.76;100.00
21588;BME280;10956;48.878;13.316;2023-10-13T09:15:00;94440.59;;;16.79;100.00
21588;BME280;10956;48.878;13.316;2023-10-13T09:17:51;94441.75;;;16.87;100.00
21588;BME280;10956;48.878;13.316;2023-10-13T09:20:17;94444.31;;;16.92;100.00
21588;BME280;10956;48.878;13.316;2023-10-13T09:25:30;94426.56;;;17.01;100.00
21588;BME280;10956;48.878;13.316;2023-10-13T09:27:59;94431.97;;;17.10;100.00
21588;BME280;10956;48.878;13.316;2023-10-13T09:30:26;94434.63;;;17.10;100.00
21588;BME280;10956;48.878;13.316;2023-10-13T09:33:04;94433.22;;;17.13;100.00
21588;BME280;10956;48.878;13.316;2023-10-13T09:35:34;94425.13;;;17.18;100.00
21588;BME280;10956;48.878;13.316;2023-10-13T09:38:02;94426.47;;;17.29;100.00
21588;BME280;10956;48.878;13.316;2023-10-13T09:40:29;94426.47;;;17.29;100.00
21588;BME280;10956;48.878;13.316;2023-10-13T09:42:59;94412.25;;;17.33;100.00
21588;BME280;10956;48.878;13.316;2023-10-13T09:45:34;94415.56;;;17.39;100.00
21588;BME280;10956;48.878;13.316;2023-10-13T09:48:12;94413.63;;;17.53;100.00
21588;BME280;10956;48.878;13.316;2023-10-13T09:50:48;94411.94;;;17.57;100.00
21588;BME280;10956;48.878;13.316;2023-10-13T09:53:14;94400.19;;;17.58;100.00
21588;BME280;10956;48.878;13.316;2023-10-13T09:55:54;94400.69;;;17.60;100.00
21588;BME280;10956;48.878;13.316;2023-10-13T09:58:28;94393.72;;;17.73;100.00
21588;BME280;10956;48.878;13.316;2023-10-13T10:01:03;94395.66;;;17.81;100.00
21588;BME280;10956;48.878;13.316;2023-10-13T10:03:45;94392.84;;;17.86;100.00
21588;BME280;10956;48.878;13.316;2023-10-13T10:06:22;94393.03;;;17.90;100.00
21588;BME280;10956;48.878;13.316;2023-10-13T10:09:08;94399.81;;;17.96;100.00
21588;BME280;10956;48.878;13.316;2023-10-13T10:17:26;94395.91;;;18.02;100.00
21588;BME280;10956;48.878;13.316;2023-10-13T10:19:55;94389.78;;;18.01;100.00
21588;BME280;10956;48.878;13.316;2023-10-13T10:22:29;94389.97;;;18.05;100.00
21588;BME280;10956;48.878;13.316;2023-10-13T10:25:09;94390.75;;;18.05;100.00
21588;BME280;10956;48.878;13.316;2023-10-13T10:27:58;94389.34;;;18.08;100.00
21588;BME280;10956;48.878;13.316;2023-10-13T10:30:27;94384.63;;;18.05;100.00
21588;BME280;10956;48.878;13.316;2023-10-13T10:32:57;94383.88;;;18.13;100.00
21588;BME280;10956;48.878;13.316;2023-10-13T10:35:27;94382.97;;;18.18;100.00
21588;BME280;10956;48.878;13.316;2023-10-13T10:38:16;94381.56;;;18.20;99.23
21588;BME280;10956;48.878;13.316;2023-10-13T10:41:02;94378.59;;;18.30;98.83
21588;BME280;10956;48.878;13.316;2023-10-13T10:46:18;94380.81;;;18.28;97.52
21588;BME280;10956;48.878;13.316;2023-10-13T10:48:50;94379.69;;;18.29;97.69
21588;BME280;10956;48.878;13.316;2023-10-13T10:51:21;94375.81;;;18.35;96.81
21588;BME280;10956;48.878;13.316;2023-10-13T10:53:48;94376.91;;;18.34;93.44
21588;BME280;10956;48.878;13.316;2023-10-13T10:56:16;94371.91;;;18.42;93.73
21588;BME280;10956;48.878;13.316;2023-10-13T10:58:55;94373.03;;;18.58;93.48
21588;BME280;10956;48.878;13.316;2023-10-13T11:01:25;94374.28;;;18.60;91.46
21588;BME280;10956;48.878;13.316;2023-10-13T11:04:00;94361.88;;;18.56;90.74
21588;BME280;10956;48.878;13.316;2023-10-13T11:06:52;94359.09;;;18.61;92.36
21588;BME280;10956;48.878;13.316;2023-10-13T11:09:31;94363.34;;;18.62;92.26
21588;BME280;10956;48.878;13.316;2023-10-13T11:14:32;94355.81;;;18.81;88.32
21588;BME280;10956;48.878;13.316;2023-10-13T11:16:58;94356.28;;;18.83;87.93
21588;BME280;10956;48.878;13.316;2023-10-13T11:19:35;94348.28;;;18.83;87.84
21588;BME280;10956;48.878;13.316;2023-10-13T11:22:14;94341.38;;;18.91;87.69
21588;BME280;10956;48.878;13.316;2023-10-13T11:24:59;94338.56;;;18.87;87.43
21588;BME280;10956;48.878;13.316;2023-10-13T11:27:29;94333.69;;;19.07;87.11
21588;BME280;10956;48.878;13.316;2023-10-13T11:30:10;94323.94;;;19.11;84.74
21588;BME280;10956;48.878;13.316;2023-10-13T11:32:39;94326.59;;;19.11;83.92
21588;BME280;10956;48.878;13.316;2023-10-13T11:35:10;94332.44;;;18.95;87.94
21588;BME280;10956;48.878;13.316;2023-10-13T11:37:46;94326.78;;;19.06;86.37
21588;BME280;10956;48.878;13.316;2023-10-13T11:40:21;94323.00;;;19.07;86.34
21588;BME280;10956;48.878;13.316;2023-10-13T11:43:06;94308.38;;;19.13;83.66
21588;BME280;10956;48.878;13.316;2023-10-13T11:45:38;94309.47;;;19.12;86.62
21588;BME280;10956;48.878;13.316;2023-10-13T11:48:18;94308.22;;;19.18;85.65
21588;BME280;10956;48.878;13.316;2023-10-13T11:50:49;94306.34;;;19.10;86.30
21588;BME280;10956;48.878;13.316;2023-10-13T11:53:14;94298.00;;;19.11;84.19
21588;BME280;10956;48.878;13.316;2023-10-13T11:55:39;94295.81;;;19.13;83.51
21588;BME280;10956;48.878;13.316;2023-10-13T11:58:05;94301.28;;;19.25;82.62
21588;BME280;10956;48.878;13.316;2023-10-13T12:00:31;94294.84;;;19.26;83.73
21588;BME280;10956;48.878;13.316;2023-10-13T12:03:15;94286.22;;;19.21;82.31
21588;BME280;10956;48.878;13.316;2023-10-13T12:05:59;94284.31;;;19.21;83.15
21588;BME280;10956;48.878;13.316;2023-10-13T12:08:42;94274.25;;;19.27;83.50
21588;BME280;10956;48.878;13.316;2023-10-13T12:11:17;94271.56;;;19.35;82.34
21588;BME280;10956;48.878;13.316;2023-10-13T12:13:57;94269.38;;;19.29;84.13
21588;BME280;10956;48.878;13.316;2023-10-13T12:16:23;94260.91;;;19.27;84.92
21588;BME280;10956;48.878;13.316;2023-10-13T12:18:59;94254.59;;;19.31;83.73
21588;BME280;10956;48.878;13.316;2023-10-13T12:21:26;94260.56;;;19.37;83.20
21588;BME280;10956;48.878;13.316;2023-10-13T12:23:52;94248.91;;;19.42;84.16
21588;BME280;10956;48.878;13.316;2023-10-13T12:26:19;94249.38;;;19.44;83.02
21588;BME280;10956;48.878;13.316;2023-10-13T12:28:47;94243.72;;;19.45;83.07
21588;BME280;10956;48.878;13.316;2023-10-13T12:31:19;94244.81;;;19.44;83.45
21588;BME280;10956;48.878;13.316;2023-10-13T12:33:52;94248.59;;;19.43;86.22
21588;BME280;10956;48.878;13.316;2023-10-13T12:36:17;94237.72;;;19.48;82.88
21588;BME280;10956;48.878;13.316;2023-10-13T12:38:46;94240.25;;;19.53;82.49
21588;BME280;10956;48.878;13.316;2023-10-13T12:41:11;94235.84;;;19.57;82.97
21588;BME280;10956;48.878;13.316;2023-10-13T12:43:55;94234.13;;;19.53;82.43
21588;BME280;10956;48.878;13.316;2023-10-13T12:46:39;94236.16;;;19.56;86.02
21588;BME280;10956;48.878;13.316;2023-10-13T12:49:23;94225.78;;;19.54;86.63
21588;BME280;10956;48.878;13.316;2023-10-13T12:52:07;94216.81;;;19.50;86.10
21588;BME280;10956;48.878;13.316;2023-10-13T12:54:43;94214.16;;;19.50;83.41
21588;BME280;10956;48.878;13.316;2023-10-13T12:57:16;94215.25;;;19.58;85.00
21588;BME280;10956;48.878;13.316;2023-10-13T12:59:42;94210.69;;;19.58;86.46
21588;BME280;10956;48.878;13.316;2023-10-13T13:02:08;94205.34;;;19.58;85.44
21588;BME280;10956;48.878;13.316;2023-10-13T13:04:40;94210.69;;;19.58;85.12
21588;BME280;10956;48.878;13.316;2023-10-13T13:07:09;94196.22;;;19.59;86.49
21588;BME280;10956;48.878;13.316;2023-10-13T13:09:39;94198.41;;;19.57;87.73
21588;BME280;10956;48.878;13.316;2023-10-13T13:12:05;94198.88;;;19.59;88.82
21588;BME280;10956;48.878;13.316;2023-10-13T13:14:31;94197.41;;;19.71;87.81
21588;BME280;10956;48.878;13.316;2023-10-13T13:16:59;94191.69;;;19.81;87.05
21588;BME280;10956;48.878;13.316;2023-10-13T13:19:34;94185.88;;;19.79;86.87
21588;BME280;10956;48.878;13.316;2023-10-13T13:22:09;94181.00;;;19.81;86.13
21588;BME280;10956;48.878;13.316;2023-10-13T13:24:39;94185.50;;;19.89;85.08
21588;BME280;10956;48.878;13.316;2023-10-13T13:27:14;94174.63;;;19.94;84.65
21588;BME280;10956;48.878;13.316;2023-10-13T13:29:48;94174.63;;;19.94;83.90
21588;BME280;10956;48.878;13.316;2023-10-13T13:32:14;94171.50;;;19.92;82.88
21588;BME280;10956;48.878;13.316;2023-10-13T13:34:47;94163.16;;;19.93;84.80
21588;BME280;10956;48.878;13.316;2023-10-13T13:37:20;94169.66;;;19.84;87.27
21588;BME280;10956;48.878;13.316;2023-10-13T13:39:46;94164.78;;;19.86;83.83
21588;BME280;10956;48.878;13.316;2023-10-13T13:42:11;94161.19;;;19.82;84.96
21588;BME280;10956;48.878;13.316;2023-10-13T13:44:43;94154.41;;;19.84;86.13
21588;BME280;10956;48.878;13.316;2023-10-13T13:47:12;94159.75;;;19.84;86.26